CSCL Dalian — VRBH4 — position and weather

sailwx.info

Track history (hours):
 
Tides and Currents Weather Stations Pressure Air Temp Water Temp Dewpoint Dewpoint Depression Visibility Wind Speed Wind Dir Waves Ship Positions

CSCL Dalian

Last reported at 2017-Jan-23 16:33 UTC. Time now 2017-Jan-23 16:54 UTC.
Position N 44°06' E 008°55'.

Length 259.8 m; ; draft 11 m.

Type: Cargo ship. MMSI: 477014600.

Date/timePositionNaut miles runAvg speedWind from/ knotsBaromVisibWave heightAir tempDewpointWater temp
2017-Jan-23 16:33N 44°06' E 008°55'1 1.4
2017-Jan-23 15:33N 44°07' E 008°53'1 1.4
2017-Jan-23 14:33N 44°09' E 008°52'1 1.5
2017-Jan-23 13:33N 44°10' E 008°51'1 1.5
2017-Jan-23 12:33N 44°11' E 008°50'2 1.5
2017-Jan-23 11:33N 44°12' E 008°49'2 1.5
2017-Jan-23 10:33N 44°14' E 008°47'2 1.6
2017-Jan-23 09:33N 44°15' E 008°46'1 1.3
2017-Jan-23 08:33N 44°16' E 008°47'1111.1
2017-Jan-23 07:33N 44°06' E 008°52'1 0.7
2017-Jan-23 06:33N 44°06' E 008°52'1 1.5
2017-Jan-23 05:33N 44°07' E 008°51'1 1.4
2017-Jan-23 04:33N 44°08' E 008°50'2 1.6
2017-Jan-23 03:33N 44°07' E 008°48'8 8.0
2017-Jan-23 02:33N 43°60' E 008°44'2 2.1
2017-Jan-23 01:33N 44°01' E 008°46'2 2.2
2017-Jan-23 00:33N 44°03' E 008°48'2 2.3
2017-Jan-22 23:33N 44°05' E 008°50'2 2.3
2017-Jan-22 22:33N 44°06' E 008°52'3 2.6
2017-Jan-22 21:33N 44°08' E 008°55'2 2.3
2017-Jan-22 20:33N 44°10' E 008°57'1 1.5
2017-Jan-22 19:33N 44°11' E 008°57'3 3.3
2017-Jan-22 18:33N 44°14' E 008°56'1 1.2
2017-Jan-22 17:34N 44°15' E 008°57'8 7.8
2017-Jan-22 16:33N 44°10' E 009°06'1 1.3
2017-Jan-22 15:33N 44°10' E 009°04'2 1.6
2017-Jan-22 14:33N 44°11' E 009°02'2 1.6
2017-Jan-22 13:33N 44°11' E 008°60'1 1.5
2017-Jan-22 12:33N 44°12' E 008°58'2 1.6
2017-Jan-22 11:33N 44°13' E 008°56'1 1.3
2017-Jan-22 10:33N 44°13' E 008°55'1 1.3
2017-Jan-22 09:33N 44°15' E 008°54'1 1.4
2017-Jan-22 08:33N 44°16' E 008°52'1 1.4
2017-Jan-22 07:33N 44°17' E 008°52'9 9.2
2017-Jan-22 06:33N 44°10' E 009°00'4 4.1
2017-Jan-22 05:33N 44°07' E 009°05'0 0.4
2017-Jan-22 04:33N 44°08' E 009°04'0 0.4
2017-Jan-22 03:33N 44°08' E 009°04'1 0.7
2017-Jan-22 02:33N 44°09' E 009°03'1 0.7
2017-Jan-22 01:33N 44°09' E 009°02'1 0.7
2017-Jan-22 00:33N 44°09' E 009°02'1 0.8
2017-Jan-21 23:33N 44°10' E 009°01'1 0.9
2017-Jan-21 22:33N 44°10' E 008°60'1 1.0
2017-Jan-21 21:33N 44°11' E 008°59'1 1.1
2017-Jan-21 20:33N 44°12' E 008°58'1 1.2
2017-Jan-21 19:33N 44°12' E 008°57'1 1.4
2017-Jan-21 18:33N 44°14' E 008°56'1 1.2
2017-Jan-21 17:33N 44°13' E 008°57'8 7.7
2017-Jan-21 16:33N 44°06' E 009°01'1 0.9
2017-Jan-21 15:33N 44°06' E 009°00'1 1.0
2017-Jan-21 14:33N 44°07' E 008°59'1 1.2
2017-Jan-21 13:33N 44°08' E 008°58'1 1.1
2017-Jan-21 12:33N 44°09' E 008°57'1 0.9
2017-Jan-21 11:33N 44°09' E 008°56'1 0.9
2017-Jan-21 10:33N 44°10' E 008°56'1 0.8
2017-Jan-21 09:33N 44°11' E 008°55'1 0.8
2017-Jan-21 08:33N 44°12' E 008°55'1 0.9
2017-Jan-21 07:33N 44°12' E 008°54'1 0.9
2017-Jan-21 06:33N 44°13' E 008°53'1 1.1
2017-Jan-21 05:33N 44°14' E 008°53'2 1.6
2017-Jan-21 04:33N 44°13' E 008°51'1212.0
2017-Jan-21 03:33N 44°04' E 008°40'1 0.6
2017-Jan-21 02:33N 44°04' E 008°39'3 2.8
2017-Jan-21 01:33N 44°06' E 008°42'2 2.2
2017-Jan-21 00:33N 44°07' E 008°45'2 1.9
2017-Jan-20 23:33N 44°08' E 008°47'2 1.8
2017-Jan-20 22:33N 44°09' E 008°49'2 1.8
2017-Jan-20 21:33N 44°10' E 008°51'2 1.8
2017-Jan-20 20:33N 44°12' E 008°52'2 1.8
2017-Jan-20 19:33N 44°13' E 008°54'4 4.2
2017-Jan-20 18:33N 44°13' E 008°48'2 2.3
2017-Jan-20 17:33N 44°15' E 008°50'2 2.3
2017-Jan-20 16:33N 44°17' E 008°49'1111.2
2017-Jan-20 15:33N 44°08' E 008°59'1212.0
2017-Jan-20 14:33N 43°59' E 009°10'1313.0
2017-Jan-20 13:33N 43°50' E 009°23'1313.0
2017-Jan-20 12:33N 43°40' E 009°35'1212.5
2017-Jan-20 11:33N 43°33' E 009°48'1212.3
2017-Jan-20 10:33N 43°30' E 010°05'1010.0
2017-Jan-20 09:33N 43°34' E 010°18'1 0.9
2017-Jan-20 08:33N 43°35' E 010°18'0 0.0
2017-Jan-20 07:33N 43°35' E 010°18'0 0.0
2017-Jan-20 06:33N 43°35' E 010°18'0 0.0
2017-Jan-20 05:33N 43°35' E 010°18'0 0.0
2017-Jan-20 04:30N 43°35' E 010°18'0 0.0
2017-Jan-20 03:27N 43°35' E 010°18'0 0.0
2017-Jan-20 02:30N 43°35' E 010°18'0 0.0
2017-Jan-20 01:33N 43°35' E 010°18'0 0.0
2017-Jan-20 00:33N 43°35' E 010°18'0 0.0
2017-Jan-19 23:33N 43°35' E 010°18'0 0.0
2017-Jan-19 22:33N 43°35' E 010°18'0 0.0
2017-Jan-19 21:33N 43°35' E 010°18'0 0.0
2017-Jan-19 20:33N 43°35' E 010°18'0 0.0
2017-Jan-19 19:33N 43°35' E 010°18'0 0.0
2017-Jan-19 18:33N 43°35' E 010°18'0 0.0
2017-Jan-19 17:33N 43°35' E 010°18'0 0.0
2017-Jan-19 16:33N 43°35' E 010°18'0 0.0
2017-Jan-19 15:33N 43°35' E 010°18'0 0.0
2017-Jan-19 14:33N 43°35' E 010°18'0 0.0
2017-Jan-19 13:33N 43°35' E 010°18'0 0.0
2017-Jan-19 12:33N 43°35' E 010°18'0 0.0
2017-Jan-19 11:33N 43°35' E 010°18'0 0.0
2017-Jan-19 10:33N 43°35' E 010°18'0 0.0
2017-Jan-19 09:33N 43°35' E 010°18'3 2.8
2017-Jan-19 08:34N 43°32' E 010°17'9 9.2
2017-Jan-19 07:33N 43°24' E 010°10'10 9.8
2017-Jan-19 06:33N 43°15' E 010°07'8 8.2
2017-Jan-19 05:34N 43°07' E 010°03'8 8.1
2017-Jan-19 04:33N 42°59' E 010°00'23 9.8
2017-Jan-19 02:12N 42°37' E 009°51'216 9.5
2017-Jan-18 03:33N 39°02' E 009°21'1313.0
2017-Jan-18 02:33N 39°08' E 009°06'5 4.7
2017-Jan-18 01:33N 39°13' E 009°04'0 0.0
2017-Jan-18 00:33N 39°13' E 009°04'0 0.0
2017-Jan-17 23:33N 39°13' E 009°04'0 0.0
2017-Jan-17 22:33N 39°13' E 009°04'0 0.0
2017-Jan-17 21:33N 39°13' E 009°04'0 0.0
2017-Jan-17 20:33N 39°13' E 009°04'0 0.0
2017-Jan-17 19:33N 39°13' E 009°04'0 0.0
2017-Jan-17 18:33N 39°13' E 009°04'0 0.0
2017-Jan-17 17:33N 39°13' E 009°04'0 0.0
2017-Jan-17 16:33N 39°13' E 009°04'0 0.0
2017-Jan-17 15:33N 39°13' E 009°04'0 0.0
2017-Jan-17 14:33N 39°13' E 009°04'0 0.0
2017-Jan-17 13:33N 39°13' E 009°04'0 0.0
2017-Jan-17 12:33N 39°13' E 009°04'0 0.0
2017-Jan-17 11:33N 39°13' E 009°04'0 0.0
2017-Jan-17 10:33N 39°13' E 009°04'0 0.0
2017-Jan-17 09:33N 39°13' E 009°04'0 0.0
2017-Jan-17 08:33N 39°13' E 009°04'0 0.0
2017-Jan-17 07:33N 39°13' E 009°04'0 0.0
2017-Jan-17 06:33N 39°13' E 009°04'0 0.0
2017-Jan-17 05:33N 39°13' E 009°04'0 0.0
2017-Jan-17 04:33N 39°13' E 009°04'0 0.0
2017-Jan-17 03:33N 39°13' E 009°04'0 0.0
2017-Jan-17 02:33N 39°13' E 009°04'0 0.0
2017-Jan-17 01:33N 39°13' E 009°04'0 0.0
2017-Jan-17 00:33N 39°13' E 009°04'0 0.0
2017-Jan-16 23:30N 39°13' E 009°04'0 0.0
2017-Jan-16 22:33N 39°13' E 009°04'0 0.0
2017-Jan-16 21:33N 39°13' E 009°04'0 0.0
2017-Jan-16 20:33N 39°13' E 009°04'0 0.4
2017-Jan-16 19:33N 39°13' E 009°04'8 8.3
2017-Jan-16 18:33N 39°05' E 009°08'1615.7
2017-Jan-16 17:33N 38°51' E 009°00'1716.5
2017-Jan-16 16:33N 38°40' E 008°44'22915.3
2017-Jan-16 01:33N 39°37' E 003°58'14 9.7
2017-Jan-16 00:09N 39°34' E 003°40'610.9
2017-Jan-15 23:33N 39°28' E 003°35'1111.0
2017-Jan-15 22:33N 39°20' E 003°26'1211.7
2017-Jan-15 21:33N 39°11' E 003°16'1212.1
2017-Jan-15 20:33N 39°03' E 003°05'1212.3
2017-Jan-15 19:33N 38°58' E 002°50'1312.7
2017-Jan-15 18:33N 38°56' E 002°34'7 7.0
2017-Jan-15 17:33N 38°55' E 002°25'2 1.6
2017-Jan-15 16:33N 38°56' E 002°25'2 2.0
2017-Jan-15 15:33N 38°58' E 002°25'2 2.0
2017-Jan-15 14:33N 39°00' E 002°25'2 2.4
2017-Jan-15 13:33N 39°03' E 002°25'3 2.6
2017-Jan-15 12:33N 39°05' E 002°24'6 6.1
2017-Jan-15 11:33N 39°01' E 002°30'1111.1
2017-Jan-15 10:33N 38°54' E 002°41'2 2.1
2017-Jan-15 09:33N 38°55' E 002°39'2 2.1
2017-Jan-15 08:33N 38°57' E 002°37'2 2.0
2017-Jan-15 07:33N 38°58' E 002°36'2 1.9
2017-Jan-15 06:33N 38°60' E 002°34'2 1.9
2017-Jan-15 05:33N 39°01' E 002°33'2 1.9
2017-Jan-15 04:33N 39°03' E 002°31'2 2.1
2017-Jan-15 03:33N 39°04' E 002°29'2 1.9
2017-Jan-15 02:33N 39°06' E 002°28'2 2.0
2017-Jan-15 01:33N 39°07' E 002°26'7 7.3
2017-Jan-15 00:33N 39°00' E 002°25'7 3.4
2017-Jan-14 22:33N 38°53' E 002°26'2 2.0
2017-Jan-14 21:33N 38°55' E 002°25'2 2.1
2017-Jan-14 20:33N 38°57' E 002°25'2 1.6
2017-Jan-14 19:33N 38°59' E 002°25'2 1.6
2017-Jan-14 18:33N 39°01' E 002°25'2 1.6
2017-Jan-14 17:33N 39°02' E 002°24'2 1.9
2017-Jan-14 16:33N 39°04' E 002°24'9 8.9
2017-Jan-14 15:33N 39°06' E 002°13'1312.6
2017-Jan-14 14:33N 39°11' E 001°58'1212.5
2017-Jan-14 13:33N 39°14' E 001°42'1312.4
2017-Jan-14 12:31N 39°19' E 001°27'1312.1
2017-Jan-14 11:28N 39°22' E 001°11'6711.4
2017-Jan-14 05:33N 39°25' W 000°16'3 3.0
2017-Jan-14 04:31N 39°27' W 000°19'0 0.0
2017-Jan-14 03:31N 39°27' W 000°19'0 0.0
2017-Jan-13 23:31N 39°27' W 000°19'0 0.0
2017-Jan-13 22:31N 39°27' W 000°19'0 0.0
2017-Jan-13 21:31N 39°27' W 000°19'0 0.0
2017-Jan-13 20:31N 39°27' W 000°19'0 0.0
2017-Jan-13 19:31N 39°27' W 000°19'0 0.0
2017-Jan-13 18:31N 39°27' W 000°19'0 0.0
2017-Jan-13 17:31N 39°27' W 000°19'  
Track history (hours):
 
Tides and Currents Weather Stations Pressure Air Temp Water Temp Dewpoint Dewpoint Depression Visibility Wind Speed Wind Dir Waves Ship Positions

CSCL Dalian

Last reported at 2017-Jan-23 16:33 UTC. Time now 2017-Jan-23 16:54 UTC.
Position N 44°06' E 008°55'.

Length 259.8 m; ; draft 11 m.

Type: Cargo ship. MMSI: 477014600.

Date/timePositionNaut miles runAvg speedWind from/ knotsBaromVisibWave heightAir tempDewpointWater temp
2017-Jan-23 16:33N 44°06' E 008°55'1 1.4
2017-Jan-23 15:33N 44°07' E 008°53'1 1.4
2017-Jan-23 14:33N 44°09' E 008°52'1 1.5
2017-Jan-23 13:33N 44°10' E 008°51'1 1.5
2017-Jan-23 12:33N 44°11' E 008°50'2 1.5
2017-Jan-23 11:33N 44°12' E 008°49'2 1.5
2017-Jan-23 10:33N 44°14' E 008°47'2 1.6
2017-Jan-23 09:33N 44°15' E 008°46'1 1.3
2017-Jan-23 08:33N 44°16' E 008°47'1111.1
2017-Jan-23 07:33N 44°06' E 008°52'1 0.7
2017-Jan-23 06:33N 44°06' E 008°52'1 1.5
2017-Jan-23 05:33N 44°07' E 008°51'1 1.4
2017-Jan-23 04:33N 44°08' E 008°50'2 1.6
2017-Jan-23 03:33N 44°07' E 008°48'8 8.0
2017-Jan-23 02:33N 43°60' E 008°44'2 2.1
2017-Jan-23 01:33N 44°01' E 008°46'2 2.2
2017-Jan-23 00:33N 44°03' E 008°48'2 2.3
2017-Jan-22 23:33N 44°05' E 008°50'2 2.3
2017-Jan-22 22:33N 44°06' E 008°52'3 2.6
2017-Jan-22 21:33N 44°08' E 008°55'2 2.3
2017-Jan-22 20:33N 44°10' E 008°57'1 1.5
2017-Jan-22 19:33N 44°11' E 008°57'3 3.3
2017-Jan-22 18:33N 44°14' E 008°56'1 1.2
2017-Jan-22 17:34N 44°15' E 008°57'8 7.8
2017-Jan-22 16:33N 44°10' E 009°06'1 1.3
2017-Jan-22 15:33N 44°10' E 009°04'2 1.6
2017-Jan-22 14:33N 44°11' E 009°02'2 1.6
2017-Jan-22 13:33N 44°11' E 008°60'1 1.5
2017-Jan-22 12:33N 44°12' E 008°58'2 1.6
2017-Jan-22 11:33N 44°13' E 008°56'1 1.3
2017-Jan-22 10:33N 44°13' E 008°55'1 1.3
2017-Jan-22 09:33N 44°15' E 008°54'1 1.4
2017-Jan-22 08:33N 44°16' E 008°52'1 1.4
2017-Jan-22 07:33N 44°17' E 008°52'9 9.2
2017-Jan-22 06:33N 44°10' E 009°00'4 4.1
2017-Jan-22 05:33N 44°07' E 009°05'0 0.4
2017-Jan-22 04:33N 44°08' E 009°04'0 0.4
2017-Jan-22 03:33N 44°08' E 009°04'1 0.7
2017-Jan-22 02:33N 44°09' E 009°03'1 0.7
2017-Jan-22 01:33N 44°09' E 009°02'1 0.7
2017-Jan-22 00:33N 44°09' E 009°02'1 0.8
2017-Jan-21 23:33N 44°10' E 009°01'1 0.9
2017-Jan-21 22:33N 44°10' E 008°60'1 1.0
2017-Jan-21 21:33N 44°11' E 008°59'1 1.1
2017-Jan-21 20:33N 44°12' E 008°58'1 1.2
2017-Jan-21 19:33N 44°12' E 008°57'1 1.4
2017-Jan-21 18:33N 44°14' E 008°56'1 1.2
2017-Jan-21 17:33N 44°13' E 008°57'8 7.7
2017-Jan-21 16:33N 44°06' E 009°01'1 0.9
2017-Jan-21 15:33N 44°06' E 009°00'1 1.0
2017-Jan-21 14:33N 44°07' E 008°59'1 1.2
2017-Jan-21 13:33N 44°08' E 008°58'1 1.1
2017-Jan-21 12:33N 44°09' E 008°57'1 0.9
2017-Jan-21 11:33N 44°09' E 008°56'1 0.9
2017-Jan-21 10:33N 44°10' E 008°56'1 0.8
2017-Jan-21 09:33N 44°11' E 008°55'1 0.8
2017-Jan-21 08:33N 44°12' E 008°55'1 0.9
2017-Jan-21 07:33N 44°12' E 008°54'1 0.9
2017-Jan-21 06:33N 44°13' E 008°53'1 1.1
2017-Jan-21 05:33N 44°14' E 008°53'2 1.6
2017-Jan-21 04:33N 44°13' E 008°51'1212.0
2017-Jan-21 03:33N 44°04' E 008°40'1 0.6
2017-Jan-21 02:33N 44°04' E 008°39'3 2.8
2017-Jan-21 01:33N 44°06' E 008°42'2 2.2
2017-Jan-21 00:33N 44°07' E 008°45'2 1.9
2017-Jan-20 23:33N 44°08' E 008°47'2 1.8
2017-Jan-20 22:33N 44°09' E 008°49'2 1.8
2017-Jan-20 21:33N 44°10' E 008°51'2 1.8
2017-Jan-20 20:33N 44°12' E 008°52'2 1.8
2017-Jan-20 19:33N 44°13' E 008°54'4 4.2
2017-Jan-20 18:33N 44°13' E 008°48'2 2.3
2017-Jan-20 17:33N 44°15' E 008°50'2 2.3
2017-Jan-20 16:33N 44°17' E 008°49'1111.2
2017-Jan-20 15:33N 44°08' E 008°59'1212.0
2017-Jan-20 14:33N 43°59' E 009°10'1313.0
2017-Jan-20 13:33N 43°50' E 009°23'1313.0
2017-Jan-20 12:33N 43°40' E 009°35'1212.5
2017-Jan-20 11:33N 43°33' E 009°48'1212.3
2017-Jan-20 10:33N 43°30' E 010°05'1010.0
2017-Jan-20 09:33N 43°34' E 010°18'1 0.9
2017-Jan-20 08:33N 43°35' E 010°18'0 0.0
2017-Jan-20 07:33N 43°35' E 010°18'0 0.0
2017-Jan-20 06:33N 43°35' E 010°18'0 0.0
2017-Jan-20 05:33N 43°35' E 010°18'0 0.0
2017-Jan-20 04:30N 43°35' E 010°18'0 0.0
2017-Jan-20 03:27N 43°35' E 010°18'0 0.0
2017-Jan-20 02:30N 43°35' E 010°18'0 0.0
2017-Jan-20 01:33N 43°35' E 010°18'0 0.0
2017-Jan-20 00:33N 43°35' E 010°18'0 0.0
2017-Jan-19 23:33N 43°35' E 010°18'0 0.0
2017-Jan-19 22:33N 43°35' E 010°18'0 0.0
2017-Jan-19 21:33N 43°35' E 010°18'0 0.0
2017-Jan-19 20:33N 43°35' E 010°18'0 0.0
2017-Jan-19 19:33N 43°35' E 010°18'0 0.0
2017-Jan-19 18:33N 43°35' E 010°18'0 0.0
2017-Jan-19 17:33N 43°35' E 010°18'0 0.0
2017-Jan-19 16:33N 43°35' E 010°18'0 0.0
2017-Jan-19 15:33N 43°35' E 010°18'0 0.0
2017-Jan-19 14:33N 43°35' E 010°18'0 0.0
2017-Jan-19 13:33N 43°35' E 010°18'0 0.0
2017-Jan-19 12:33N 43°35' E 010°18'0 0.0
2017-Jan-19 11:33N 43°35' E 010°18'0 0.0
2017-Jan-19 10:33N 43°35' E 010°18'0 0.0
2017-Jan-19 09:33N 43°35' E 010°18'3 2.8
2017-Jan-19 08:34N 43°32' E 010°17'9 9.2
2017-Jan-19 07:33N 43°24' E 010°10'10 9.8
2017-Jan-19 06:33N 43°15' E 010°07'8 8.2
2017-Jan-19 05:34N 43°07' E 010°03'8 8.1
2017-Jan-19 04:33N 42°59' E 010°00'23 9.8
2017-Jan-19 02:12N 42°37' E 009°51'216 9.5
2017-Jan-18 03:33N 39°02' E 009°21'1313.0
2017-Jan-18 02:33N 39°08' E 009°06'5 4.7
2017-Jan-18 01:33N 39°13' E 009°04'0 0.0
2017-Jan-18 00:33N 39°13' E 009°04'0 0.0
2017-Jan-17 23:33N 39°13' E 009°04'0 0.0
2017-Jan-17 22:33N 39°13' E 009°04'0 0.0
2017-Jan-17 21:33N 39°13' E 009°04'0 0.0
2017-Jan-17 20:33N 39°13' E 009°04'0 0.0
2017-Jan-17 19:33N 39°13' E 009°04'0 0.0
2017-Jan-17 18:33N 39°13' E 009°04'0 0.0
2017-Jan-17 17:33N 39°13' E 009°04'0 0.0
2017-Jan-17 16:33N 39°13' E 009°04'0 0.0
2017-Jan-17 15:33N 39°13' E 009°04'0 0.0
2017-Jan-17 14:33N 39°13' E 009°04'0 0.0
2017-Jan-17 13:33N 39°13' E 009°04'0 0.0
2017-Jan-17 12:33N 39°13' E 009°04'0 0.0
2017-Jan-17 11:33N 39°13' E 009°04'0 0.0
2017-Jan-17 10:33N 39°13' E 009°04'0 0.0
2017-Jan-17 09:33N 39°13' E 009°04'0 0.0
2017-Jan-17 08:33N 39°13' E 009°04'0 0.0
2017-Jan-17 07:33N 39°13' E 009°04'0 0.0
2017-Jan-17 06:33N 39°13' E 009°04'0 0.0
2017-Jan-17 05:33N 39°13' E 009°04'0 0.0
2017-Jan-17 04:33N 39°13' E 009°04'0 0.0
2017-Jan-17 03:33N 39°13' E 009°04'0 0.0
2017-Jan-17 02:33N 39°13' E 009°04'0 0.0
2017-Jan-17 01:33N 39°13' E 009°04'0 0.0
2017-Jan-17 00:33N 39°13' E 009°04'0 0.0
2017-Jan-16 23:30N 39°13' E 009°04'0 0.0
2017-Jan-16 22:33N 39°13' E 009°04'0 0.0
2017-Jan-16 21:33N 39°13' E 009°04'0 0.0
2017-Jan-16 20:33N 39°13' E 009°04'0 0.4
2017-Jan-16 19:33N 39°13' E 009°04'8 8.3
2017-Jan-16 18:33N 39°05' E 009°08'1615.7
2017-Jan-16 17:33N 38°51' E 009°00'1716.5
2017-Jan-16 16:33N 38°40' E 008°44'22915.3
2017-Jan-16 01:33N 39°37' E 003°58'14 9.7
2017-Jan-16 00:09N 39°34' E 003°40'610.9
2017-Jan-15 23:33N 39°28' E 003°35'1111.0
2017-Jan-15 22:33N 39°20' E 003°26'1211.7
2017-Jan-15 21:33N 39°11' E 003°16'1212.1
2017-Jan-15 20:33N 39°03' E 003°05'1212.3
2017-Jan-15 19:33N 38°58' E 002°50'1312.7
2017-Jan-15 18:33N 38°56' E 002°34'7 7.0
2017-Jan-15 17:33N 38°55' E 002°25'2 1.6
2017-Jan-15 16:33N 38°56' E 002°25'2 2.0
2017-Jan-15 15:33N 38°58' E 002°25'2 2.0
2017-Jan-15 14:33N 39°00' E 002°25'2 2.4
2017-Jan-15 13:33N 39°03' E 002°25'3 2.6
2017-Jan-15 12:33N 39°05' E 002°24'6 6.1
2017-Jan-15 11:33N 39°01' E 002°30'1111.1
2017-Jan-15 10:33N 38°54' E 002°41'2 2.1
2017-Jan-15 09:33N 38°55' E 002°39'2 2.1
2017-Jan-15 08:33N 38°57' E 002°37'2 2.0
2017-Jan-15 07:33N 38°58' E 002°36'2 1.9
2017-Jan-15 06:33N 38°60' E 002°34'2 1.9
2017-Jan-15 05:33N 39°01' E 002°33'2 1.9
2017-Jan-15 04:33N 39°03' E 002°31'2 2.1
2017-Jan-15 03:33N 39°04' E 002°29'2 1.9
2017-Jan-15 02:33N 39°06' E 002°28'2 2.0
2017-Jan-15 01:33N 39°07' E 002°26'7 7.3
2017-Jan-15 00:33N 39°00' E 002°25'7 3.4
2017-Jan-14 22:33N 38°53' E 002°26'2 2.0
2017-Jan-14 21:33N 38°55' E 002°25'2 2.1
2017-Jan-14 20:33N 38°57' E 002°25'2 1.6
2017-Jan-14 19:33N 38°59' E 002°25'2 1.6
2017-Jan-14 18:33N 39°01' E 002°25'2 1.6
2017-Jan-14 17:33N 39°02' E 002°24'2 1.9
2017-Jan-14 16:33N 39°04' E 002°24'9 8.9
2017-Jan-14 15:33N 39°06' E 002°13'1312.6
2017-Jan-14 14:33N 39°11' E 001°58'1212.5
2017-Jan-14 13:33N 39°14' E 001°42'1312.4
2017-Jan-14 12:31N 39°19' E 001°27'1312.1
2017-Jan-14 11:28N 39°22' E 001°11'6711.4
2017-Jan-14 05:33N 39°25' W 000°16'3 3.0
2017-Jan-14 04:31N 39°27' W 000°19'0 0.0
2017-Jan-14 03:31N 39°27' W 000°19'0 0.0
2017-Jan-13 23:31N 39°27' W 000°19'0 0.0
2017-Jan-13 22:31N 39°27' W 000°19'0 0.0
2017-Jan-13 21:31N 39°27' W 000°19'0 0.0
2017-Jan-13 20:31N 39°27' W 000°19'0 0.0
2017-Jan-13 19:31N 39°27' W 000°19'0 0.0
2017-Jan-13 18:31N 39°27' W 000°19'0 0.0
2017-Jan-13 17:31N 39°27' W 000°19'  

Dump ship's entire track history